Time;durP1;ratioP1;P1;durP2;ratioP2;P2;SDS_P1;SDS_P2;PMS_P1;PMS_P2;Temp;Humidity;BMP_temperature;BMP_pressure;BME280_temperature;BME280_humidity;BME280_pressure;Samples;Min_cycle;Max_cycle;Signal;HPM_P1;HPM_P2
2022/10/30 00:04:46;;;;;;;;;;;;;;;20.30;52.34;96155.00;10536164;28;1615;-51
2022/10/30 00:09:47;;;;;;;;;;;;;;;20.30;52.35;96149.72;10532353;28;1124;-52
2022/10/30 00:14:47;;;;;;;;;;;;;;;20.30;52.59;96149.72;10532570;28;1647;-53
2022/10/30 00:19:48;;;;;;;;;;;;;;;20.29;52.42;96153.44;10536188;28;1959;-49
2022/10/30 00:24:48;;;;;;;;;;;;;;;20.30;52.45;96154.22;10529754;28;1628;-49
2022/10/30 00:29:55;;;;;;;;;;;;;;;20.30;52.22;96157.63;10530334;28;1444;-53
2022/10/30 00:34:55;;;;;;;;;;;;;;;20.30;52.21;96157.63;10535391;28;1215;-50
2022/10/30 00:39:55;;;;;;;;;;;;;;;20.30;52.41;96154.22;10527432;28;1902;-51
2022/10/30 00:44:56;;;;;;;;;;;;;;;20.30;52.40;96155.00;10532497;28;1690;-51
2022/10/30 00:49:58;;;;;;;;;;;;;;;20.31;52.21;96161.06;10532516;28;1120;-54
2022/10/30 00:55:00;;;;;;;;;;;;;;;20.31;52.46;96150.53;10530271;28;1666;-51
2022/10/30 01:00:01;;;;;;;;;;;;;;;20.30;52.37;96155.00;10533428;28;1913;-50
2022/10/30 01:05:01;;;;;;;;;;;;;;;20.30;52.12;96149.72;10534474;28;736;-51
2022/10/30 01:10:02;;;;;;;;;;;;;;;20.31;52.22;96147.91;10533248;28;1583;-49
2022/10/30 01:15:02;;;;;;;;;;;;;;;20.30;52.12;96146.34;10526487;28;1791;-52
2022/10/30 01:20:06;;;;;;;;;;;;;;;20.30;52.23;96149.72;10534169;28;1983;-50
2022/10/30 01:25:06;;;;;;;;;;;;;;;20.30;52.35;96148.97;10539723;28;1611;-52
2022/10/30 01:30:06;;;;;;;;;;;;;;;20.30;52.28;96149.72;10541430;28;1437;-52
2022/10/30 01:35:18;;;;;;;;;;;;;;;20.29;52.36;96156.06;10537467;28;1445;-52
2022/10/30 01:40:22;;;;;;;;;;;;;;;20.31;52.19;96155.78;10535255;28;1960;-51
2022/10/30 01:45:30;;;;;;;;;;;;;;;20.30;52.14;96157.63;10541271;28;1620;-51
2022/10/30 01:50:48;;;;;;;;;;;;;;;20.29;52.21;96153.44;10541716;28;1022;-49
2022/10/30 01:55:52;;;;;;;;;;;;;;;20.29;52.14;96156.06;10522918;28;1014;-52
2022/10/30 02:00:55;;;;;;;;;;;;;;;20.30;52.14;96146.34;10538729;28;2239;-52
2022/10/30 02:05:55;;;;;;;;;;;;;;;20.29;52.02;96148.16;10531481;28;1631;-52
2022/10/30 02:10:58;;;;;;;;;;;;;;;20.30;52.09;96149.72;10541372;28;1088;-53
2022/10/30 02:16:02;;;;;;;;;;;;;;;20.29;52.11;96158.69;10540440;28;1647;-51
2022/10/30 02:21:02;;;;;;;;;;;;;;;20.31;52.07;96148.69;10540899;28;1902;-53
2022/10/30 02:26:02;;;;;;;;;;;;;;;20.30;52.04;96147.09;10538831;28;1643;-48
2022/10/30 02:31:11;;;;;;;;;;;;;;;20.31;52.01;96142.63;10541533;28;1525;-49
2022/10/30 02:36:14;;;;;;;;;;;;;;;20.30;52.09;96144.47;10534632;28;1496;-49
2022/10/30 02:41:14;;;;;;;;;;;;;;;20.31;51.94;96142.63;10576559;27;1973;-51
2022/10/30 02:46:14;;;;;;;;;;;;;;;20.30;52.11;96144.47;10539060;28;1626;-49
2022/10/30 02:51:15;;;;;;;;;;;;;;;20.30;51.94;96147.09;10545714;28;1131;-52
2022/10/30 02:56:15;;;;;;;;;;;;;;;20.30;52.01;96141.06;10541705;28;1659;-48
2022/10/30 03:01:16;;;;;;;;;;;;;;;20.30;51.91;96144.47;10533269;28;1969;-51
2022/10/30 03:06:17;;;;;;;;;;;;;;;20.30;51.84;96143.69;10536908;28;1560;-50
2022/10/30 03:11:17;;;;;;;;;;;;;;;20.29;52.07;96142.91;10539421;28;1790;-51
2022/10/30 03:16:18;;;;;;;;;;;;;;;20.30;52.01;96130.53;10534033;28;1599;-51
2022/10/30 03:21:19;;;;;;;;;;;;;;;20.29;52.02;96137.63;10538422;28;1898;-52
2022/10/30 03:26:20;;;;;;;;;;;;;;;20.29;51.89;96137.63;10535356;28;1670;-49
2022/10/30 03:31:20;;;;;;;;;;;;;;;20.29;51.89;96132.38;10532099;28;1702;-51
2022/10/30 03:36:20;;;;;;;;;;;;;;;20.30;51.89;96133.94;10536137;28;1512;-49
2022/10/30 03:41:21;;;;;;;;;;;;;;;20.30;51.81;96123.41;10536306;28;1902;-50
2022/10/30 03:46:21;;;;;;;;;;;;;;;20.30;51.97;96122.63;10531376;28;1654;-49
2022/10/30 03:51:21;;;;;;;;;;;;;;;20.29;51.92;96121.84;10537077;28;956;-49
2022/10/30 03:56:21;;;;;;;;;;;;;;;20.29;51.68;96132.38;10535959;28;1732;-51
2022/10/30 04:01:22;;;;;;;;;;;;;;;20.28;51.86;96143.94;10531843;28;1902;-51
2022/10/30 04:06:22;;;;;;;;;;;;;;;20.29;52.01;96150.81;10532558;28;1706;-52
2022/10/30 04:11:22;;;;;;;;;;;;;;;20.30;51.64;96146.34;10539791;28;1175;-51
2022/10/30 04:16:22;;;;;;;;;;;;;;;20.30;51.82;96136.56;10539996;28;1631;-52
2022/10/30 04:21:23;;;;;;;;;;;;;;;20.30;51.72;96143.69;10539577;28;1910;-52
2022/10/30 04:26:23;;;;;;;;;;;;;;;20.28;51.76;96136.03;10539441;28;1686;-50
2022/10/30 04:31:24;;;;;;;;;;;;;;;20.28;51.92;96142.09;10529406;28;1773;-53
2022/10/30 04:36:32;;;;;;;;;;;;;;;20.29;51.74;96132.38;10534833;28;1465;-54
2022/10/30 04:41:33;;;;;;;;;;;;;;;20.29;51.64;96140.28;10528493;28;1972;-53
2022/10/30 04:46:33;;;;;;;;;;;;;;;20.28;51.69;96136.84;10531555;28;1658;-53
2022/10/30 04:51:33;;;;;;;;;;;;;;;20.28;51.58;96133.41;10535092;28;1092;-52
2022/10/30 04:56:34;;;;;;;;;;;;;;;20.27;51.72;96135.28;10531166;28;1769;-49
2022/10/30 05:01:34;;;;;;;;;;;;;;;20.28;51.68;96120.25;10528904;28;1905;-49
2022/10/30 05:06:34;;;;;;;;;;;;;;;20.28;51.65;96120.25;10534441;28;1690;-51
2022/10/30 05:11:35;;;;;;;;;;;;;;;20.29;51.57;96116.56;10535502;28;1089;-51
2022/10/30 05:16:35;;;;;;;;;;;;;;;20.29;51.48;96113.94;10526231;28;1628;-53
2022/10/30 05:21:35;;;;;;;;;;;;;;;20.28;51.82;96110.50;10532933;28;1910;-52
2022/10/30 05:26:35;;;;;;;;;;;;;;;20.28;51.73;96102.63;10524922;28;1596;-51
2022/10/30 05:31:36;;;;;;;;;;;;;;;20.29;51.76;96108.69;10529358;28;1138;-51
2022/10/30 05:36:36;;;;;;;;;;;;;;;20.28;51.61;96104.44;10527050;28;1429;-51
2022/10/30 05:41:36;;;;;;;;;;;;;;;20.29;51.58;96106.03;10533927;28;1906;-50
2022/10/30 05:46:37;;;;;;;;;;;;;;;20.28;51.49;96099.97;10531924;28;1560;-50
2022/10/30 05:51:37;;;;;;;;;;;;;;;20.28;51.43;96104.44;10534563;28;821;-51
2022/10/30 05:56:38;;;;;;;;;;;;;;;20.29;51.68;96100.78;10529233;28;1627;-50
2022/10/30 06:01:38;;;;;;;;;;;;;;;20.29;51.52;96098.16;10528063;28;1902;-53
2022/10/30 06:06:38;;;;;;;;;;;;;;;20.30;51.25;96096.31;10531551;28;1589;-51
2022/10/30 06:11:38;;;;;;;;;;;;;;;20.30;51.53;96096.31;10520391;28;1462;-52
2022/10/30 06:16:39;;;;;;;;;;;;;;;20.28;51.48;96097.34;10536642;28;1607;-52
2022/10/30 06:21:39;;;;;;;;;;;;;;;20.28;51.43;96099.97;10541114;28;1913;-52
2022/10/30 06:26:39;;;;;;;;;;;;;;;20.30;51.55;96109.47;10532563;28;1623;-50
2022/10/30 06:31:46;;;;;;;;;;;;;;;20.30;51.41;96101.56;10536762;28;1061;-54
2022/10/30 06:36:46;;;;;;;;;;;;;;;20.31;51.32;96097.88;10531865;28;1449;-51
2022/10/30 06:41:46;;;;;;;;;;;;;;;20.30;51.38;96101.56;10539876;28;1975;-50
2022/10/30 06:46:47;;;;;;;;;;;;;;;20.28;51.27;96102.63;10538902;28;1635;-52
2022/10/30 06:51:47;;;;;;;;;;;;;;;20.30;51.30;96106.84;10537402;28;1666;-52
2022/10/30 06:56:51;;;;;;;;;;;;;;;20.30;51.47;96102.34;10537751;28;1496;-51
2022/10/30 07:01:51;;;;;;;;;;;;;;;20.30;51.21;96107.59;10536051;28;1967;-51
2022/10/30 07:06:51;;;;;;;;;;;;;;;20.30;51.56;96106.84;10535273;28;1615;-52
2022/10/30 07:11:51;;;;;;;;;;;;;;;20.29;51.35;96111.31;10540733;28;1151;-51
2022/10/30 07:16:53;;;;;;;;;;;;;;;20.27;51.28;96108.94;10532672;28;1654;-52
2022/10/30 07:21:53;;;;;;;;;;;;;;;20.29;51.56;96116.56;10533719;28;2358;-50
2022/10/30 07:26:54;;;;;;;;;;;;;;;20.27;51.57;96122.09;10533535;28;1469;-50
2022/10/30 07:31:54;;;;;;;;;;;;;;;20.27;51.37;96126.56;10537942;28;1093;-49
2022/10/30 07:36:54;;;;;;;;;;;;;;;20.27;51.64;96123.94;10536000;28;1453;-52
2022/10/30 07:41:54;;;;;;;;;;;;;;;20.27;51.37;96118.69;10538918;28;1976;-50
2022/10/30 07:46:55;;;;;;;;;;;;;;;20.28;51.43;96125.50;10533538;28;1727;-49
2022/10/30 07:51:55;;;;;;;;;;;;;;;20.28;51.43;96125.50;10539216;28;1143;-47
2022/10/30 07:56:56;;;;;;;;;;;;;;;20.28;51.43;96139.47;10537197;28;1540;-48
2022/10/30 08:01:56;;;;;;;;;;;;;;;20.27;51.53;96145.81;10533889;28;1971;-52
2022/10/30 08:06:57;;;;;;;;;;;;;;;20.28;51.54;96147.38;10529765;28;1675;-49
2022/10/30 08:11:57;;;;;;;;;;;;;;;20.28;51.58;96136.84;10536714;28;1077;-49
2022/10/30 08:16:57;;;;;;;;;;;;;;;20.28;51.54;96141.31;10535346;28;1533;-50
2022/10/30 08:22:01;;;;;;;;;;;;;;;20.30;51.83;96139.19;10531018;28;1953;-48
2022/10/30 08:27:01;;;;;;;;;;;;;;;20.32;51.57;96136.31;10529689;28;1511;-51
2022/10/30 08:32:01;;;;;;;;;;;;;;;20.33;51.59;96132.63;10532894;28;1031;-51
2022/10/30 08:37:01;;;;;;;;;;;;;;;20.33;51.44;96137.91;10534773;28;1628;-51
2022/10/30 08:42:02;;;;;;;;;;;;;;;20.34;51.35;96132.34;10536106;28;1894;-51
2022/10/30 08:47:02;;;;;;;;;;;;;;;20.34;51.25;96131.59;10531156;28;1730;-50
2022/10/30 08:52:06;;;;;;;;;;;;;;;20.35;51.42;96135.78;10535370;28;1042;-49
2022/10/30 08:57:06;;;;;;;;;;;;;;;20.35;51.54;96130.53;10524466;28;1568;-51
2022/10/30 09:02:07;;;;;;;;;;;;;;;20.35;51.36;96127.88;10532975;28;1898;-52
2022/10/30 09:07:07;;;;;;;;;;;;;;;20.34;51.46;96124.47;10533446;28;1607;-51
2022/10/30 09:12:07;;;;;;;;;;;;;;;20.33;51.47;96116.84;10535302;28;1164;-51
2022/10/30 09:17:07;;;;;;;;;;;;;;;20.34;51.44;96121.81;10533913;28;1702;-49
2022/10/30 09:22:08;;;;;;;;;;;;;;;20.35;51.46;96120.78;10534606;28;1963;-51
2022/10/30 09:27:08;;;;;;;;;;;;;;;20.36;51.62;96121.59;10522455;28;1698;-51
2022/10/30 09:32:09;;;;;;;;;;;;;;;20.38;51.72;96130.78;10532856;28;1136;-52
2022/10/30 09:37:09;;;;;;;;;;;;;;;20.38;51.49;96125.50;10533150;28;1702;-51
2022/10/30 09:42:19;;;;;;;;;;;;;;;20.40;51.57;96131.34;10534664;28;1969;-49
2022/10/30 09:47:25;;;;;;;;;;;;;;;20.39;51.58;96127.09;10536719;28;1864;-50
2022/10/30 09:52:41;;;;;;;;;;;;;;;20.41;51.78;96121.56;10541847;28;1588;-49
2022/10/30 09:57:41;;;;;;;;;;;;;;;20.42;51.71;96125.81;10537336;28;1422;-49
2022/10/30 10:02:59;;;;;;;;;;;;;;;20.42;51.63;96126.59;10542275;28;1886;-52
2022/10/30 10:08:03;;;;;;;;;;;;;;;20.43;51.69;96122.91;10534825;28;1709;-52
2022/10/30 10:13:03;;;;;;;;;;;;;;;20.45;51.80;96130.53;10541228;28;1094;-52
2022/10/30 10:18:05;;;;;;;;;;;;;;;20.45;51.70;96120.78;10534558;28;1650;-51
2022/10/30 10:23:16;;;;;;;;;;;;;;;20.46;51.88;96132.91;10538602;28;1894;-52
2022/10/30 10:28:31;;;;;;;;;;;;;;;20.48;51.92;96128.19;10534375;28;1433;-49
2022/10/30 10:33:31;;;;;;;;;;;;;;;20.47;51.84;96129.22;10533272;28;1178;-51
2022/10/30 10:38:34;;;;;;;;;;;;;;;20.49;51.90;96124.47;10539362;28;1643;-52
2022/10/30 10:43:39;;;;;;;;;;;;;;;20.49;52.08;96127.09;10539782;28;1898;-49
2022/10/30 10:48:42;;;;;;;;;;;;;;;20.50;51.97;96120.81;10567691;27;1116;-47
2022/10/30 10:53:43;;;;;;;;;;;;;;;20.49;52.14;96127.09;10532511;28;1650;-47
2022/10/30 10:58:48;;;;;;;;;;;;;;;20.50;52.20;96126.06;10535561;28;1536;-52
2022/10/30 11:04:07;;;;;;;;;;;;;;;20.51;52.03;96114.47;10542583;28;1977;-50
2022/10/30 11:09:11;;;;;;;;;;;;;;;20.51;51.92;96111.84;10535896;28;1742;-49
2022/10/30 11:14:14;;;;;;;;;;;;;;;20.53;51.96;96114.19;10540543;28;1607;-54
2022/10/30 11:19:20;;;;;;;;;;;;;;;20.54;52.32;96106.06;10535559;28;1910;-49
2022/10/30 11:24:27;;;;;;;;;;;;;;;20.54;52.00;96098.16;10532748;28;1536;-51
2022/10/30 11:29:28;;;;;;;;;;;;;;;20.55;52.33;96104.97;10533571;28;1524;-50
2022/10/30 11:34:32;;;;;;;;;;;;;;;20.57;52.25;96091.53;10540187;28;1124;-52
2022/10/30 11:39:33;;;;;;;;;;;;;;;20.57;52.21;96084.44;10536544;28;1980;-52
2022/10/30 11:44:51;;;;;;;;;;;;;;;20.61;52.26;96089.97;10536366;28;1818;-49
2022/10/30 11:49:53;;;;;;;;;;;;;;;20.60;52.20;96081.28;10536766;28;1111;-52
2022/10/30 11:54:54;;;;;;;;;;;;;;;20.59;52.34;96071.78;10534165;28;1705;-53
2022/10/30 11:59:55;;;;;;;;;;;;;;;20.60;52.27;96064.69;10532573;28;1967;-52
2022/10/30 12:04:59;;;;;;;;;;;;;;;20.62;52.32;96066.00;10532830;28;1648;-50
2022/10/30 12:10:01;;;;;;;;;;;;;;;20.62;52.21;96060.75;10533083;28;1156;-52
2022/10/30 12:15:13;;;;;;;;;;;;;;;20.64;52.35;96061.25;10534519;28;1604;-50
2022/10/30 12:20:18;;;;;;;;;;;;;;;20.67;52.24;96054.69;10536343;28;1902;-52
2022/10/30 12:25:28;;;;;;;;;;;;;;;20.69;52.31;96049.94;10533917;28;1785;-53
2022/10/30 12:30:29;;;;;;;;;;;;;;;20.71;52.12;96040.69;10532694;28;1453;-51
2022/10/30 12:35:38;;;;;;;;;;;;;;;20.74;52.05;96034.09;10529892;28;1420;-47
2022/10/30 12:40:43;;;;;;;;;;;;;;;20.82;51.90;96039.63;10538256;28;1987;-48
2022/10/30 12:45:43;;;;;;;;;;;;;;;20.95;51.93;96033.00;10529588;28;1650;-50
2022/10/30 12:50:46;;;;;;;;;;;;;;;21.15;51.45;96029.50;10538758;28;1758;-49
2022/10/30 12:55:48;;;;;;;;;;;;;;;21.70;50.11;96026.59;10533646;28;1615;-53
2022/10/30 13:00:51;;;;;;;;;;;;;;;22.97;48.14;96024.47;10533140;28;1901;-50
2022/10/30 13:06:04;;;;;;;;;;;;;;;23.39;46.33;96017.34;10535657;28;809;-52
2022/10/30 13:11:10;;;;;;;;;;;;;;;23.04;46.64;96019.63;10527174;28;1610;-52
2022/10/30 13:16:15;;;;;;;;;;;;;;;22.97;46.59;96021.81;10531218;28;1619;-54
2022/10/30 13:21:27;;;;;;;;;;;;;;;22.70;46.97;96018.94;10556639;28;1978;-51
2022/10/30 13:26:30;;;;;;;;;;;;;;;22.29;47.66;96016.66;10537989;28;1588;-51
2022/10/30 13:31:33;;;;;;;;;;;;;;;22.13;48.28;96017.06;10537515;28;1690;-49
2022/10/30 13:36:41;;;;;;;;;;;;;;;22.07;48.43;96023.47;10534871;28;1434;-48
2022/10/30 13:41:47;;;;;;;;;;;;;;;21.83;49.41;96016.25;10541403;28;1913;-50
2022/10/30 13:47:06;;;;;;;;;;;;;;;21.73;49.55;96012.84;10535193;28;1540;-51
2022/10/30 13:52:15;;;;;;;;;;;;;;;21.65;49.76;96014.22;10542465;28;1100;-52
2022/10/30 13:57:17;;;;;;;;;;;;;;;21.55;50.47;96003.75;10534538;28;1619;-51
2022/10/30 14:02:30;;;;;;;;;;;;;;;21.47;50.50;96000.88;10533102;28;1913;-51
2022/10/30 14:07:49;;;;;;;;;;;;;;;21.41;50.87;96009.88;10536315;28;1671;-51
2022/10/30 14:12:51;;;;;;;;;;;;;;;21.38;51.00;96013.06;10541905;28;1159;-52
2022/10/30 14:18:10;;;;;;;;;;;;;;;21.35;50.99;96010.97;10540891;28;1647;-49
2022/10/30 14:23:19;;;;;;;;;;;;;;;21.28;51.10;96013.91;10539762;28;1905;-49
2022/10/30 14:28:19;;;;;;;;;;;;;;;21.23;51.12;96021.03;10531187;28;1488;-47
2022/10/30 14:33:52;;;;;;;;;;;;;;;21.20;51.46;96016.31;10540031;28;1108;-50
2022/10/30 14:39:07;;;;;;;;;;;;;;;21.16;51.52;96020.56;10516078;28;1680;-50
2022/10/30 14:44:16;;;;;;;;;;;;;;;21.12;51.70;96019.53;10538302;28;1623;-49
2022/10/30 14:49:34;;;;;;;;;;;;;;;21.06;51.66;96011.63;10538651;28;1101;-49
2022/10/30 14:54:53;;;;;;;;;;;;;;;21.01;51.73;96013.47;10534939;28;1756;-50
2022/10/30 15:00:12;;;;;;;;;;;;;;;20.99;51.96;96020.84;10533618;28;1906;-52
2022/10/30 15:05:22;;;;;;;;;;;;;;;20.96;51.99;96016.91;10537958;28;1221;-50
2022/10/30 15:10:32;;;;;;;;;;;;;;;20.94;51.71;96020.84;10537818;28;1682;-49
2022/10/30 15:15:32;;;;;;;;;;;;;;;20.91;52.11;96019.56;10537741;28;774;-51
2022/10/30 15:20:33;;;;;;;;;;;;;;;20.90;52.07;96023.25;10538053;28;1905;-51
2022/10/30 15:25:34;;;;;;;;;;;;;;;20.88;52.21;96017.47;10534037;28;1654;-51
2022/10/30 15:30:34;;;;;;;;;;;;;;;20.88;51.89;96022.72;10536549;28;1571;-53
2022/10/30 15:35:35;;;;;;;;;;;;;;;20.86;52.01;96022.22;10537131;28;1476;-51
2022/10/30 15:40:35;;;;;;;;;;;;;;;20.85;51.97;96017.22;10539117;28;1882;-51
2022/10/30 15:45:36;;;;;;;;;;;;;;;20.84;52.19;96024.31;10532104;28;1670;-54
2022/10/30 15:50:38;;;;;;;;;;;;;;;20.81;52.25;96027.47;10541514;28;1103;-53
2022/10/30 15:55:38;;;;;;;;;;;;;;;20.81;52.01;96030.13;10539774;28;1643;-51
2022/10/30 16:00:38;;;;;;;;;;;;;;;20.81;52.27;96037.25;10534506;28;1975;-50
2022/10/30 16:05:39;;;;;;;;;;;;;;;20.79;52.12;96031.47;10538074;28;1046;-50
2022/10/30 16:10:39;;;;;;;;;;;;;;;20.78;51.93;96033.31;10528337;28;1670;-50
2022/10/30 16:15:39;;;;;;;;;;;;;;;20.78;52.17;96029.88;10536494;28;1132;-52
2022/10/30 16:20:40;;;;;;;;;;;;;;;20.77;52.08;96028.31;10529545;28;1973;-53
2022/10/30 16:25:40;;;;;;;;;;;;;;;20.76;51.95;96030.16;10528940;28;1691;-51
2022/10/30 16:30:41;;;;;;;;;;;;;;;20.74;51.96;96029.63;10528276;28;1866;-51
2022/10/30 16:35:41;;;;;;;;;;;;;;;20.74;52.42;96029.63;10529905;28;1626;-49
2022/10/30 16:40:41;;;;;;;;;;;;;;;20.73;52.42;96028.03;10534412;28;1989;-51
2022/10/30 16:45:44;;;;;;;;;;;;;;;20.72;52.19;96037.00;10528940;28;1563;-49
2022/10/30 16:50:45;;;;;;;;;;;;;;;20.73;52.03;96043.06;10535162;28;1051;-46
2022/10/30 16:55:45;;;;;;;;;;;;;;;20.72;52.03;96049.38;10532795;28;1647;-51
2022/10/30 17:00:52;;;;;;;;;;;;;;;20.72;52.19;96047.53;10529706;28;1894;-51
2022/10/30 17:05:56;;;;;;;;;;;;;;;20.70;52.23;96054.94;10514092;28;1980;-51
2022/10/30 17:10:58;;;;;;;;;;;;;;;20.70;52.23;96052.28;10534849;28;1150;-51
2022/10/30 17:15:58;;;;;;;;;;;;;;;20.69;52.29;96057.84;10531260;28;1655;-51
2022/10/30 17:21:00;;;;;;;;;;;;;;;20.69;52.27;96063.88;10535077;28;1973;-50
2022/10/30 17:26:10;;;;;;;;;;;;;;;20.69;52.20;96063.88;10533352;28;1560;-52
2022/10/30 17:31:20;;;;;;;;;;;;;;;20.69;52.28;96071.78;10509502;28;1653;-51
2022/10/30 17:36:20;;;;;;;;;;;;;;;20.68;52.17;96078.13;10528421;28;1519;-51
2022/10/30 17:41:21;;;;;;;;;;;;;;;20.69;52.30;96077.03;10534140;28;1965;-52
2022/10/30 17:46:22;;;;;;;;;;;;;;;20.68;52.05;96083.38;10532486;28;1709;-52
2022/10/30 17:51:22;;;;;;;;;;;;;;;20.68;52.16;96083.38;10533370;28;814;-50
2022/10/30 17:56:24;;;;;;;;;;;;;;;20.67;52.00;96087.06;10532432;28;1560;-48
2022/10/30 18:01:25;;;;;;;;;;;;;;;20.66;52.06;96088.13;10527528;28;1906;-51
2022/10/30 18:06:25;;;;;;;;;;;;;;;20.67;52.13;96087.06;10527980;28;1580;-49
2022/10/30 18:11:27;;;;;;;;;;;;;;;20.67;52.02;96094.19;10541114;28;1104;-53
2022/10/30 18:16:27;;;;;;;;;;;;;;;20.67;52.27;96094.19;10539744;28;1662;-52
2022/10/30 18:21:28;;;;;;;;;;;;;;;20.66;52.17;96090.75;10541279;28;1959;-47
2022/10/30 18:26:29;;;;;;;;;;;;;;;20.66;52.07;96090.75;10539714;28;1647;-51
2022/10/30 18:31:29;;;;;;;;;;;;;;;20.65;51.99;96094.44;10535906;28;1883;-52
2022/10/30 18:36:37;;;;;;;;;;;;;;;20.65;52.00;96097.06;10534335;28;1509;-53
2022/10/30 18:41:39;;;;;;;;;;;;;;;20.64;52.05;96092.88;10544077;28;1898;-49
2022/10/30 18:46:39;;;;;;;;;;;;;;;20.65;52.09;96098.94;10543384;28;1675;-46
2022/10/30 18:51:40;;;;;;;;;;;;;;;20.65;52.16;96099.69;10539671;28;1674;-50
2022/10/30 18:56:40;;;;;;;;;;;;;;;20.65;51.96;96104.97;10541982;28;1485;-50
2022/10/30 19:01:40;;;;;;;;;;;;;;;20.65;51.94;96109.47;10570315;27;1914;-49
2022/10/30 19:06:41;;;;;;;;;;;;;;;20.64;52.23;96102.59;10541639;28;1730;-49
2022/10/30 19:11:41;;;;;;;;;;;;;;;20.65;51.94;96089.16;10568325;27;1182;-53
2022/10/30 19:16:41;;;;;;;;;;;;;;;20.64;51.85;96103.41;10536434;28;1666;-52
2022/10/30 19:21:42;;;;;;;;;;;;;;;20.64;52.08;96095.50;10542001;28;1971;-50
2022/10/30 19:26:42;;;;;;;;;;;;;;;20.64;51.90;96099.97;10535475;28;1667;-49
2022/10/30 19:31:42;;;;;;;;;;;;;;;20.64;51.72;96106.03;10541566;28;1187;-48
2022/10/30 19:36:43;;;;;;;;;;;;;;;20.63;52.14;96103.69;10539966;28;1692;-50
2022/10/30 19:41:43;;;;;;;;;;;;;;;20.64;52.12;96103.41;10543807;28;2338;-51
2022/10/30 19:46:44;;;;;;;;;;;;;;;20.65;52.07;96098.94;10541608;28;1611;-51
2022/10/30 19:51:44;;;;;;;;;;;;;;;20.63;52.06;96104.44;10540723;28;1655;-53
2022/10/30 19:56:44;;;;;;;;;;;;;;;20.63;52.11;96107.06;10533436;28;1446;-51
2022/10/30 20:01:45;;;;;;;;;;;;;;;20.63;52.00;96096.53;10532523;28;1971;-54
2022/10/30 20:06:45;;;;;;;;;;;;;;;20.62;51.91;96097.63;10530872;28;1812;-49
2022/10/30 20:11:46;;;;;;;;;;;;;;;20.61;51.86;96093.38;10536802;28;1080;-53
2022/10/30 20:16:46;;;;;;;;;;;;;;;20.63;51.91;96095.78;10533563;28;1722;-53
2022/10/30 20:21:46;;;;;;;;;;;;;;;20.62;52.09;96100.25;10535178;28;1955;-51
2022/10/30 20:26:47;;;;;;;;;;;;;;;20.62;52.04;96100.25;10532303;28;1675;-51
2022/10/30 20:31:47;;;;;;;;;;;;;;;20.62;51.65;96094.97;10532122;28;1310;-53
2022/10/30 20:36:47;;;;;;;;;;;;;;;20.63;52.12;96095.78;10534476;28;1556;-52
2022/10/30 20:41:49;;;;;;;;;;;;;;;20.61;51.79;96103.91;10536730;28;1906;-50
2022/10/30 20:46:50;;;;;;;;;;;;;;;20.61;51.74;96109.19;10539136;28;1611;-51
2022/10/30 20:51:56;;;;;;;;;;;;;;;20.60;51.71;96112.09;10544720;28;781;-47
2022/10/30 20:56:56;;;;;;;;;;;;;;;20.62;52.13;96117.88;10547614;28;1628;-52
2022/10/30 21:01:56;;;;;;;;;;;;;;;20.62;51.84;96125.78;10541791;28;1909;-47
2022/10/30 21:06:56;;;;;;;;;;;;;;;20.62;51.77;96131.84;10529048;28;1608;-50
2022/10/30 21:11:57;;;;;;;;;;;;;;;20.62;51.95;96131.06;10537293;28;1171;-48
2022/10/30 21:16:58;;;;;;;;;;;;;;;20.62;51.80;96131.84;10535444;28;1854;-52
2022/10/30 21:21:58;;;;;;;;;;;;;;;20.61;51.73;96125.00;10536583;28;1964;-54
2022/10/30 21:26:58;;;;;;;;;;;;;;;20.61;51.93;96129.50;10530381;28;1651;-51
2022/10/30 21:32:00;;;;;;;;;;;;;;;20.61;51.98;96134.75;10533655;28;1117;-51
2022/10/30 21:37:01;;;;;;;;;;;;;;;20.60;51.66;96131.34;10533136;28;1667;-51
2022/10/30 21:42:02;;;;;;;;;;;;;;;20.60;51.56;96128.69;10542680;28;1906;-51
2022/10/30 21:47:02;;;;;;;;;;;;;;;20.60;51.54;96123.44;10542323;28;1612;-49
2022/10/30 21:52:02;;;;;;;;;;;;;;;20.60;51.81;96125.25;10544605;28;1666;-50
2022/10/30 21:57:03;;;;;;;;;;;;;;;20.59;51.94;96126.31;10541541;28;1861;-53
2022/10/30 22:02:03;;;;;;;;;;;;;;;20.60;51.64;96112.91;10539880;28;1971;-52
2022/10/30 22:07:03;;;;;;;;;;;;;;;20.60;51.85;96122.63;10541063;28;1682;-49
2022/10/30 22:12:04;;;;;;;;;;;;;;;20.59;51.69;96126.31;10541557;28;1199;-52
2022/10/30 22:17:04;;;;;;;;;;;;;;;20.59;51.83;96134.19;10538001;28;1670;-52
2022/10/30 22:22:05;;;;;;;;;;;;;;;20.59;51.65;96127.09;10541091;28;1906;-52
2022/10/30 22:27:05;;;;;;;;;;;;;;;20.59;51.57;96116.56;10526259;28;1635;-52
2022/10/30 22:32:06;;;;;;;;;;;;;;;20.61;51.69;96121.59;10538811;28;1069;-50
2022/10/30 22:37:07;;;;;;;;;;;;;;;20.60;51.53;96120.00;10535986;28;1717;-52
2022/10/30 22:42:10;;;;;;;;;;;;;;;20.61;51.93;96122.34;10540353;28;1910;-52
2022/10/30 22:47:10;;;;;;;;;;;;;;;20.61;51.59;96118.97;10537413;28;1703;-52
2022/10/30 22:52:10;;;;;;;;;;;;;;;20.60;51.61;96117.38;10539531;28;1226;-53
2022/10/30 22:57:11;;;;;;;;;;;;;;;20.59;51.68;96121.84;10530637;28;1607;-48
2022/10/30 23:02:11;;;;;;;;;;;;;;;20.60;51.70;96120.78;10538461;28;1922;-51
2022/10/30 23:07:12;;;;;;;;;;;;;;;20.61;51.46;96109.19;10539019;28;1568;-53
2022/10/30 23:12:12;;;;;;;;;;;;;;;20.60;51.64;96115.53;10539682;28;1175;-52
2022/10/30 23:17:12;;;;;;;;;;;;;;;20.58;51.51;96120.28;10535984;28;1655;-51
2022/10/30 23:22:13;;;;;;;;;;;;;;;20.60;51.45;96123.44;10539997;28;1966;-53
2022/10/30 23:27:14;;;;;;;;;;;;;;;20.59;51.57;96127.09;10530834;28;1781;-51
2022/10/30 23:32:14;;;;;;;;;;;;;;;20.58;51.56;96120.28;10540649;28;1152;-50
2022/10/30 23:37:15;;;;;;;;;;;;;;;20.59;51.53;96131.56;10537921;28;1627;-51
2022/10/30 23:42:15;;;;;;;;;;;;;;;20.60;51.74;96138.44;10538136;28;1947;-53
2022/10/30 23:47:15;;;;;;;;;;;;;;;20.59;51.49;96137.63;10530539;28;1746;-49
2022/10/30 23:52:15;;;;;;;;;;;;;;;20.59;51.41;96126.31;10537457;28;1128;-52
2022/10/30 23:57:16;;;;;;;;;;;;;;;20.58;51.57;96128.16;10529508;28;1658;-50
